createdAt,value
2023-05-16T00:01:48.853Z,97890.09
2023-05-16T00:04:15.610Z,97898.66
2023-05-16T00:06:42.318Z,97901.44
2023-05-16T00:09:09.058Z,97910.75
2023-05-16T00:11:35.789Z,97896.44
2023-05-16T00:14:02.707Z,97896.44
2023-05-16T00:16:30.174Z,97909.09
2023-05-16T00:19:01.277Z,97906.06
2023-05-16T00:21:28.174Z,97905.50
2023-05-16T00:23:54.905Z,97907.72
2023-05-16T00:26:21.831Z,97886.63
2023-05-16T00:28:48.692Z,97913.19
2023-05-16T00:31:15.570Z,97890.47
2023-05-16T00:33:42.240Z,97914.78
2023-05-16T00:36:08.815Z,97917.91
2023-05-16T00:38:35.558Z,97919.19
2023-05-16T00:41:02.104Z,97926.56
2023-05-16T00:43:29.164Z,97927.03
2023-05-16T00:45:57.906Z,97911.47
2023-05-16T00:48:25.024Z,97932.00
2023-05-16T00:50:52.785Z,97937.69
2023-05-16T00:53:20.257Z,97923.84
2023-05-16T00:55:47.370Z,97941.06
2023-05-16T00:58:14.816Z,97945.00
2023-05-16T01:00:41.907Z,97940.34
2023-05-16T01:03:09.024Z,97902.34
2023-05-16T01:05:35.756Z,97951.56
2023-05-16T01:08:02.262Z,97932.19
2023-05-16T01:10:39.724Z,97937.28
2023-05-16T01:13:16.230Z,97938.06
2023-05-16T01:16:07.515Z,97943.13
2023-05-16T01:18:43.862Z,97941.06
2023-05-16T01:21:28.264Z,97935.97
2023-05-16T01:24:14.014Z,97942.00
2023-05-16T01:26:41.886Z,97936.06
2023-05-16T01:29:09.113Z,97939.75
2023-05-16T01:31:36.333Z,97938.88
2023-05-16T01:34:03.153Z,97940.19
2023-05-16T01:36:35.967Z,97939.31
2023-05-16T01:39:30.531Z,97932.72
2023-05-16T01:42:12.252Z,97927.41
2023-05-16T01:44:50.427Z,97933.53
2023-05-16T01:47:19.476Z,97936.47
2023-05-16T01:50:06.902Z,97937.38
2023-05-16T01:52:50.127Z,97925.09
2023-05-16T01:55:29.235Z,97931.06
2023-05-16T01:57:56.763Z,97928.50
2023-05-16T02:00:23.602Z,97919.56
2023-05-16T02:02:50.195Z,97907.03
2023-05-16T02:05:16.806Z,97928.50
2023-05-16T02:07:44.297Z,97916.34
2023-05-16T02:10:11.777Z,97900.84
2023-05-16T02:12:38.352Z,97919.16
2023-05-16T02:15:05.414Z,97910.91
2023-05-16T02:17:32.177Z,97921.34
2023-05-16T02:19:58.788Z,97924.00
2023-05-16T02:22:26.989Z,97922.53
2023-05-16T02:24:53.832Z,97893.75
2023-05-16T02:27:20.596Z,97918.00
2023-05-16T02:29:47.302Z,97917.03
2023-05-16T02:32:13.825Z,97908.41
2023-05-16T02:34:40.390Z,97920.63
2023-05-16T02:37:06.944Z,97885.34
2023-05-16T02:39:33.567Z,97932.25
2023-05-16T02:42:00.116Z,97933.44
2023-05-16T02:44:26.732Z,97888.63
2023-05-16T02:46:53.249Z,97952.75
2023-05-16T02:49:23.507Z,97916.72
2023-05-16T02:51:50.445Z,97957.88
2023-05-16T02:54:17.123Z,97961.50
2023-05-16T02:56:44.471Z,97966.47
2023-05-16T02:59:12.152Z,97973.91
2023-05-16T03:01:38.820Z,97963.78
2023-05-16T03:04:06.304Z,97970.75
2023-05-16T03:06:33.123Z,97979.88
2023-05-16T03:08:59.768Z,97980.84
2023-05-16T03:11:26.886Z,97968.44
2023-05-16T03:13:54.120Z,97997.38
2023-05-16T03:16:21.861Z,97989.78
2023-05-16T03:18:48.491Z,97984.78
2023-05-16T03:21:15.142Z,98004.00
2023-05-16T03:23:41.812Z,97987.81
2023-05-16T03:26:08.427Z,97992.06
2023-05-16T03:28:35.491Z,98006.94
2023-05-16T03:31:02.218Z,97998.84
2023-05-16T03:33:28.719Z,98024.97
2023-05-16T03:35:55.323Z,98005.81
2023-05-16T03:38:21.872Z,98030.41
2023-05-16T03:40:48.564Z,98034.09
2023-05-16T03:43:15.171Z,98012.72
2023-05-16T03:45:41.811Z,98038.72
2023-05-16T03:48:09.980Z,98044.50
2023-05-16T03:50:39.518Z,98015.69
2023-05-16T03:53:07.389Z,98044.34
2023-05-16T03:55:35.171Z,98044.78
2023-05-16T03:58:01.951Z,98027.66
2023-05-16T04:00:28.606Z,98056.59
2023-05-16T04:02:55.252Z,98058.25
2023-05-16T04:05:21.830Z,98064.19
2023-05-16T04:07:48.611Z,98074.78
2023-05-16T04:10:15.227Z,98066.84
2023-05-16T04:12:41.699Z,98087.06
2023-05-16T04:15:08.613Z,98036.97
2023-05-16T04:17:35.303Z,98073.31
2023-05-16T04:20:04.203Z,98087.06
2023-05-16T04:22:31.015Z,98096.63
2023-05-16T04:24:58.538Z,98062.91
2023-05-16T04:27:25.146Z,98096.00
2023-05-16T04:29:51.917Z,98089.06
2023-05-16T04:32:18.553Z,98082.91
2023-05-16T04:34:45.503Z,98085.41
2023-05-16T04:37:12.319Z,98091.84
2023-05-16T04:39:39.211Z,98091.69
2023-05-16T04:42:06.168Z,98088.38
2023-05-16T04:44:32.889Z,98102.31
2023-05-16T04:46:59.744Z,98114.84
2023-05-16T04:49:26.462Z,98115.56
2023-05-16T04:51:53.191Z,98113.88
2023-05-16T04:54:19.833Z,98118.84
2023-05-16T04:56:46.391Z,98139.38
2023-05-16T04:59:12.979Z,98149.47
2023-05-16T05:01:39.801Z,98143.69
2023-05-16T05:04:06.811Z,98131.75
2023-05-16T05:06:33.664Z,98162.41
2023-05-16T05:09:00.352Z,98160.25
2023-05-16T05:11:27.576Z,98144.84
2023-05-16T05:13:55.346Z,98165.72
2023-05-16T05:16:22.133Z,98162.41
2023-05-16T05:18:48.832Z,98173.84
2023-05-16T05:21:15.574Z,98171.81
2023-05-16T05:23:42.100Z,98170.81
2023-05-16T05:26:08.678Z,98182.25
2023-05-16T05:28:35.355Z,98180.28
2023-05-16T05:31:02.007Z,98176.13
2023-05-16T05:33:29.642Z,98175.78
2023-05-16T05:35:56.395Z,98167.88
2023-05-16T05:38:23.110Z,98182.09
2023-05-16T05:40:50.878Z,98201.47
2023-05-16T05:43:17.495Z,98195.66
2023-05-16T05:45:44.923Z,98184.75
2023-05-16T05:48:12.947Z,98197.81
2023-05-16T05:50:39.597Z,98202.13
2023-05-16T05:53:06.370Z,98196.00
2023-05-16T05:55:33.083Z,98175.81
2023-05-16T05:57:59.628Z,98202.97
2023-05-16T06:00:26.512Z,98172.16
2023-05-16T06:02:53.533Z,98191.03
2023-05-16T06:05:20.380Z,98198.97
2023-05-16T06:07:46.920Z,98174.28
2023-05-16T06:10:13.458Z,98210.25
2023-05-16T06:12:39.992Z,98203.63
2023-05-16T06:15:07.682Z,98213.56
2023-05-16T06:17:34.297Z,98183.06
2023-05-16T06:20:02.294Z,98208.59
2023-05-16T06:22:28.872Z,98207.09
2023-05-16T06:24:55.388Z,98203.44
2023-05-16T06:27:22.114Z,98189.38
2023-05-16T06:29:48.620Z,98200.00
2023-05-16T06:32:15.506Z,98199.31
2023-05-16T06:34:42.088Z,98190.72
2023-05-16T06:37:08.682Z,98203.63
2023-05-16T06:39:35.238Z,98199.47
2023-05-16T06:42:01.775Z,98203.63
2023-05-16T06:44:28.578Z,98166.19
2023-05-16T06:46:55.526Z,98209.88
2023-05-16T06:49:22.188Z,98195.84
2023-05-16T06:51:48.735Z,98200.63
2023-05-16T06:54:15.553Z,98188.69
2023-05-16T06:56:42.088Z,98198.84
2023-05-16T06:59:09.040Z,98202.13
2023-05-16T07:01:35.850Z,98204.59
2023-05-16T07:04:02.671Z,98207.28
2023-05-16T07:06:29.513Z,98223.66
2023-05-16T07:08:56.345Z,98231.75
2023-05-16T07:11:22.891Z,98229.78
2023-05-16T07:13:49.561Z,98210.22
2023-05-16T07:16:16.258Z,98237.06
2023-05-16T07:18:42.929Z,98245.66
2023-05-16T07:21:09.751Z,98246.69
2023-05-16T07:23:36.621Z,98251.50
2023-05-16T07:26:03.731Z,98249.19
2023-05-16T07:28:30.544Z,98254.66
2023-05-16T07:30:58.856Z,98260.28
2023-05-16T07:33:25.786Z,98246.66
2023-05-16T07:35:58.202Z,98250.81
2023-05-16T07:38:31.053Z,98248.97
2023-05-16T07:40:57.570Z,98225.44
2023-05-16T07:43:24.504Z,98232.09
2023-05-16T07:45:51.190Z,98219.84
2023-05-16T07:48:17.826Z,98243.94
2023-05-16T07:50:44.646Z,98225.63
2023-05-16T07:53:11.322Z,98215.53
2023-05-16T07:55:37.943Z,98229.59
2023-05-16T07:58:04.652Z,98233.41
2023-05-16T08:00:31.303Z,98240.06
2023-05-16T08:02:58.310Z,98249.97
2023-05-16T08:05:25.329Z,98246.34
2023-05-16T08:07:52.063Z,98254.16
2023-05-16T08:10:18.617Z,98247.16
2023-05-16T08:12:46.373Z,98250.84
2023-05-16T08:15:13.055Z,98265.59
2023-05-16T08:17:40.217Z,98296.31
2023-05-16T08:20:08.054Z,98276.13
2023-05-16T08:22:34.653Z,98281.31
2023-05-16T08:25:01.285Z,98281.72
2023-05-16T08:27:28.711Z,98271.50
2023-05-16T08:29:55.833Z,98302.25
2023-05-16T08:32:26.453Z,98290.00
2023-05-16T08:34:53.026Z,98313.88
2023-05-16T08:37:19.645Z,98320.13
2023-05-16T08:39:46.419Z,98295.59
2023-05-16T08:42:12.972Z,98316.50
2023-05-16T08:44:39.756Z,98316.34
2023-05-16T08:47:18.997Z,98312.16
2023-05-16T08:49:48.402Z,98307.94
2023-05-16T08:52:19.813Z,98312.00
2023-05-16T08:54:50.337Z,98302.38
2023-05-16T08:57:22.218Z,98283.63
2023-05-16T08:59:49.752Z,98262.75
2023-05-16T09:02:17.041Z,98240.88
2023-05-16T09:04:45.939Z,98186.66
2023-05-16T09:07:12.523Z,98160.25
2023-05-16T09:09:39.117Z,98108.53
2023-05-16T09:12:06.002Z,98085.38
2023-05-16T09:14:33.366Z,98075.31
2023-05-16T09:17:12.338Z,98044.44
2023-05-16T09:19:43.561Z,98037.69
2023-05-16T09:22:12.529Z,98037.34
2023-05-16T09:24:44.631Z,98015.22
2023-05-16T09:27:12.729Z,98023.47
2023-05-16T09:29:51.676Z,98002.03
2023-05-16T09:32:21.290Z,98025.78
2023-05-16T09:34:49.659Z,98010.88
2023-05-16T09:37:16.290Z,98024.44
2023-05-16T09:39:53.531Z,97996.69
2023-05-16T09:42:21.297Z,98028.78
2023-05-16T09:44:54.978Z,98019.66
2023-05-16T09:47:22.162Z,98012.06
2023-05-16T09:49:53.244Z,97940.81
2023-05-16T09:52:20.045Z,97885.25
2023-05-16T09:54:49.939Z,97822.66
2023-05-16T09:57:23.637Z,97805.13
2023-05-16T09:59:50.122Z,97848.66
2023-05-16T10:02:17.068Z,97908.41
2023-05-16T10:04:43.858Z,97925.78
2023-05-16T10:07:11.057Z,97922.50
2023-05-16T10:09:39.684Z,97954.06
2023-05-16T10:12:08.930Z,98063.94
2023-05-16T10:14:42.103Z,98331.25
2023-05-16T10:17:14.448Z,98569.84
2023-05-16T10:19:42.149Z,98699.09
2023-05-16T10:22:11.984Z,99060.44
2023-05-16T10:24:48.152Z,99087.72
2023-05-16T10:27:17.364Z,99089.50
2023-05-16T10:29:54.204Z,99103.63
2023-05-16T10:32:24.168Z,99102.91
2023-05-16T10:34:51.202Z,99077.16
2023-05-16T10:37:18.203Z,99110.22
2023-05-16T10:39:45.789Z,99104.97
2023-05-16T10:42:14.350Z,99120.53
2023-05-16T10:44:46.370Z,99114.22
2023-05-16T10:47:21.396Z,99079.78
2023-05-16T10:49:48.070Z,99088.53
2023-05-16T10:52:17.989Z,99104.25
2023-05-16T10:54:52.097Z,99100.16
2023-05-16T10:57:23.206Z,99080.72
2023-05-16T10:59:52.121Z,99076.31
2023-05-16T11:02:30.410Z,99096.91
2023-05-16T11:04:59.682Z,99105.28
2023-05-16T11:07:31.717Z,99114.78
2023-05-16T11:10:17.008Z,99101.78
2023-05-16T11:12:50.236Z,99131.25
2023-05-16T11:15:29.099Z,99139.66
2023-05-16T11:18:09.132Z,99111.81
2023-05-16T11:20:40.321Z,99129.63
2023-05-16T11:23:19.270Z,99130.91
2023-05-16T11:25:48.737Z,99134.56
2023-05-16T11:28:15.653Z,99136.25
2023-05-16T11:30:50.875Z,99144.63
2023-05-16T11:33:18.021Z,99141.34
2023-05-16T11:36:11.459Z,99144.47
2023-05-16T11:38:43.901Z,99140.06
2023-05-16T11:41:11.520Z,99154.34
2023-05-16T11:43:47.154Z,99146.50
2023-05-16T11:46:15.305Z,99147.88
2023-05-16T11:48:42.594Z,99155.75
2023-05-16T11:51:10.089Z,99159.94
2023-05-16T11:53:38.228Z,99152.84
2023-05-16T11:56:08.222Z,99158.47
2023-05-16T11:58:34.846Z,99162.63
2023-05-16T12:01:08.185Z,99162.22
2023-05-16T12:03:37.055Z,99157.75
2023-05-16T12:06:04.522Z,99171.09
2023-05-16T12:08:31.342Z,99168.53
2023-05-16T12:10:58.617Z,99163.75
2023-05-16T12:13:25.721Z,99168.56
2023-05-16T12:15:53.048Z,99142.13
2023-05-16T12:18:21.792Z,99172.97
2023-05-16T12:20:48.609Z,99164.75
2023-05-16T12:23:15.465Z,99154.88
2023-05-16T12:25:49.331Z,99169.78
2023-05-16T12:28:16.565Z,99144.84
2023-05-16T12:30:45.195Z,99161.91
2023-05-16T12:33:13.396Z,99153.00
2023-05-16T12:38:33.186Z,99080.28
2023-05-16T12:40:59.896Z,99140.75
2023-05-16T12:43:27.794Z,99147.78
2023-05-16T12:45:56.546Z,99156.00
2023-05-16T12:48:30.632Z,99157.81
2023-05-16T12:50:57.835Z,99164.97
2023-05-16T12:53:24.545Z,99152.03
2023-05-16T12:55:51.175Z,99148.72
2023-05-16T12:58:17.943Z,99153.69
2023-05-16T13:00:44.799Z,99160.91
2023-05-16T13:03:12.390Z,99147.00
2023-05-16T13:05:39.168Z,99157.31
2023-05-16T13:08:06.203Z,99161.88
2023-05-16T13:10:32.866Z,99164.53
2023-05-16T13:13:00.297Z,99162.13
2023-05-16T13:15:30.064Z,99168.88
2023-05-16T13:17:56.945Z,99147.22
2023-05-16T13:20:25.851Z,99162.25
2023-05-16T13:22:52.518Z,99169.06
2023-05-16T13:25:19.073Z,99154.97
2023-05-16T13:27:46.484Z,99168.31
2023-05-16T13:30:13.819Z,99166.69
2023-05-16T13:32:40.632Z,99162.72
2023-05-16T13:35:07.554Z,99175.91
2023-05-16T13:37:34.315Z,99173.50
2023-05-16T13:40:01.050Z,99185.16
2023-05-16T13:42:28.270Z,99180.19
2023-05-16T13:44:54.830Z,99188.28
2023-05-16T13:47:21.733Z,99184.97
2023-05-16T13:49:48.635Z,99190.97
2023-05-16T13:52:15.373Z,99189.78
2023-05-16T13:54:45.500Z,99181.69
2023-05-16T13:57:12.689Z,99182.94
2023-05-16T14:00:10.818Z,99148.03
2023-05-16T14:02:26.490Z,99185.34
2023-05-16T14:04:54.548Z,99195.19
2023-05-16T14:07:21.216Z,99196.06
2023-05-16T14:09:50.870Z,99199.22
2023-05-16T14:12:18.213Z,99206.38
2023-05-16T14:14:45.720Z,99204.19
2023-05-16T14:17:12.421Z,99203.19
2023-05-16T14:19:39.048Z,99206.22
2023-05-16T14:22:08.776Z,99201.47
2023-05-16T14:24:35.592Z,99196.31
2023-05-16T14:27:03.177Z,99199.91
2023-05-16T14:29:29.844Z,99202.75
2023-05-16T14:31:56.693Z,99203.63
2023-05-16T14:34:23.584Z,99205.47
2023-05-16T14:36:53.791Z,99200.28
2023-05-16T14:39:21.091Z,99197.66
2023-05-16T14:41:47.701Z,99199.41
2023-05-16T14:44:14.482Z,99206.41
2023-05-16T14:46:41.180Z,99197.91
2023-05-16T14:49:09.090Z,99197.84
2023-05-16T14:51:35.703Z,99205.06
2023-05-16T14:54:02.380Z,99205.00
2023-05-16T14:56:29.130Z,99205.50
2023-05-16T14:58:55.817Z,99211.91
2023-05-16T15:01:22.701Z,99203.09
2023-05-16T15:03:55.159Z,99214.59
2023-05-16T15:06:23.207Z,99212.50
2023-05-16T15:08:49.840Z,99209.53
2023-05-16T15:11:16.546Z,99198.34
2023-05-16T15:13:43.254Z,99210.91
2023-05-16T15:16:11.299Z,99199.00
2023-05-16T15:18:38.129Z,99206.97
2023-05-16T15:21:04.823Z,99215.25
2023-05-16T15:23:31.705Z,99216.56
2023-05-16T15:25:58.392Z,99220.50
2023-05-16T15:28:24.952Z,99219.88
2023-05-16T15:30:56.158Z,99216.34
2023-05-16T15:33:22.716Z,99214.50
2023-05-16T15:35:49.391Z,99217.16
2023-05-16T15:38:15.960Z,99218.81
2023-05-16T15:40:42.725Z,99219.09
2023-05-16T15:43:09.428Z,99226.78
2023-05-16T15:45:39.876Z,99211.34
2023-05-16T15:48:07.289Z,99226.13
2023-05-16T15:50:34.115Z,99227.44
2023-05-16T15:53:01.062Z,99214.66
2023-05-16T15:55:27.922Z,99206.66
2023-05-16T15:58:00.786Z,99215.38
2023-05-16T16:00:27.688Z,99218.06
2023-05-16T16:02:54.679Z,99212.38
2023-05-16T16:05:21.477Z,99212.13
2023-05-16T16:07:48.037Z,99207.56
2023-05-16T16:10:14.800Z,99212.91
2023-05-16T16:12:41.814Z,99208.59
2023-05-16T16:15:10.739Z,99203.56
2023-05-16T16:17:37.392Z,99206.50
2023-05-16T16:20:04.424Z,99200.13
2023-05-16T16:22:31.292Z,99195.81
2023-05-16T16:24:57.910Z,99194.50
2023-05-16T16:27:24.785Z,99204.69
2023-05-16T16:29:51.532Z,99211.13
2023-05-16T16:32:18.081Z,99202.50
2023-05-16T16:34:44.753Z,99198.53
2023-05-16T16:37:15.942Z,99202.50
2023-05-16T16:39:42.760Z,99200.84
2023-05-16T16:42:09.481Z,99213.03
2023-05-16T16:44:36.173Z,99207.16
2023-05-16T16:47:02.953Z,99204.19
2023-05-16T16:49:32.972Z,99211.16
2023-05-16T16:51:59.568Z,99213.50
2023-05-16T16:54:28.041Z,99211.19
2023-05-16T16:56:54.678Z,99210.81
2023-05-16T16:59:21.600Z,99212.97
2023-05-16T17:01:48.254Z,99198.75
2023-05-16T17:04:28.867Z,99209.38
2023-05-16T17:06:55.424Z,99214.75
2023-05-16T17:09:22.152Z,99215.63
2023-05-16T17:11:49.006Z,99215.13
2023-05-16T17:14:15.627Z,99212.06
2023-05-16T17:16:42.263Z,99218.06
2023-05-16T17:19:14.136Z,99224.34
2023-05-16T17:21:41.004Z,99218.34
2023-05-16T17:24:08.095Z,99221.63
2023-05-16T17:26:35.583Z,99227.31
2023-05-16T17:29:04.163Z,99230.66
2023-05-16T17:31:31.191Z,99221.28
2023-05-16T17:33:57.888Z,99235.97
2023-05-16T17:36:24.484Z,99230.72
2023-05-16T17:38:51.218Z,99228.41
2023-05-16T17:41:18.155Z,99225.25
2023-05-16T17:43:45.697Z,99232.09
2023-05-16T17:46:20.705Z,99224.84
2023-05-16T17:48:47.520Z,99230.84
2023-05-16T17:51:17.467Z,99239.38
2023-05-16T17:53:44.610Z,99238.53
2023-05-16T17:56:11.200Z,99239.63
2023-05-16T17:58:37.870Z,99258.63
2023-05-16T18:01:09.284Z,99251.66
2023-05-16T18:03:36.485Z,99267.97
2023-05-16T18:06:03.235Z,99266.41
2023-05-16T18:08:29.891Z,99269.63
2023-05-16T18:10:56.917Z,99274.69
2023-05-16T18:13:24.488Z,99272.63
2023-05-16T18:15:51.109Z,99278.09
2023-05-16T18:18:18.052Z,99271.44
2023-05-16T18:20:46.108Z,99272.41
2023-05-16T18:23:12.644Z,99281.91
2023-05-16T18:25:39.322Z,99282.75
2023-05-16T18:28:07.759Z,99287.75
2023-05-16T18:30:37.026Z,99274.06
2023-05-16T18:33:04.929Z,99287.53
2023-05-16T18:35:31.702Z,99298.16
2023-05-16T18:37:58.400Z,99301.31
2023-05-16T18:40:47.940Z,99307.25
2023-05-16T18:43:14.950Z,99311.44
2023-05-16T18:45:41.536Z,99311.34
2023-05-16T18:48:08.307Z,99317.34
2023-05-16T18:50:35.155Z,99324.91
2023-05-16T18:53:01.859Z,99306.22
2023-05-16T18:55:30.991Z,99341.44
2023-05-16T18:57:58.360Z,99341.34
2023-05-16T19:00:25.579Z,99342.72
2023-05-16T19:02:52.351Z,99340.22
2023-05-16T19:05:19.867Z,99344.91
2023-05-16T19:07:46.816Z,99347.16
2023-05-16T19:10:13.669Z,99344.50
2023-05-16T19:12:40.335Z,99346.75
2023-05-16T19:15:07.590Z,99361.03
2023-05-16T19:17:34.379Z,99353.06
2023-05-16T19:20:01.858Z,99357.84
2023-05-16T19:22:28.706Z,99352.09
2023-05-16T19:24:55.380Z,99346.25
2023-05-16T19:27:22.028Z,99361.22
2023-05-16T19:29:51.090Z,99361.75
2023-05-16T19:32:17.951Z,99371.84
2023-05-16T19:34:45.005Z,99365.81
2023-05-16T19:37:12.176Z,99360.38
2023-05-16T19:39:38.978Z,99361.78
2023-05-16T19:42:07.497Z,99364.31
2023-05-16T19:44:34.974Z,99359.78
2023-05-16T19:47:05.926Z,99364.25
2023-05-16T19:49:38.442Z,99367.59
2023-05-16T19:52:08.241Z,99367.59
2023-05-16T19:54:37.626Z,99367.28
2023-05-16T19:57:04.452Z,99373.44
2023-05-16T19:59:32.598Z,99365.06
2023-05-16T20:01:59.809Z,99365.59
2023-05-16T20:04:26.558Z,99370.56
2023-05-16T20:06:53.374Z,99360.31
2023-05-16T20:09:20.022Z,99338.09
2023-05-16T20:11:46.928Z,99279.19
2023-05-16T20:14:13.691Z,99238.28
2023-05-16T20:16:46.622Z,99161.09
2023-05-16T20:19:15.288Z,99030.75
2023-05-16T20:21:41.957Z,98945.31
2023-05-16T20:24:08.612Z,98906.94
2023-05-16T20:26:35.383Z,98865.47
2023-05-16T20:29:02.024Z,98807.91
2023-05-16T20:31:28.602Z,98773.69
2023-05-16T20:33:55.742Z,98716.19
2023-05-16T20:36:22.360Z,98670.16
2023-05-16T20:38:49.060Z,98620.88
2023-05-16T20:41:15.659Z,98580.47
2023-05-16T20:43:42.936Z,98560.91
2023-05-16T20:46:09.718Z,98508.44
2023-05-16T20:48:36.361Z,98469.03
2023-05-16T20:51:03.125Z,98396.59
2023-05-16T20:53:29.834Z,98341.41
2023-05-16T20:55:58.186Z,98310.91
2023-05-16T20:58:24.860Z,98286.78
2023-05-16T21:00:51.528Z,98247.66
2023-05-16T21:03:18.343Z,98225.06
2023-05-16T21:05:45.025Z,98191.66
2023-05-16T21:08:11.684Z,98183.41
2023-05-16T21:10:38.304Z,98161.28
2023-05-16T21:13:04.882Z,98138.34
2023-05-16T21:15:31.619Z,98147.72
2023-05-16T21:17:58.408Z,98127.25
2023-05-16T21:20:25.113Z,98135.00
2023-05-16T21:22:55.951Z,98142.22
2023-05-16T21:25:22.524Z,98134.44
2023-05-16T21:27:49.405Z,98133.63
2023-05-16T21:30:16.084Z,98128.94
2023-05-16T21:32:42.764Z,98133.78
2023-05-16T21:35:09.622Z,98129.38
2023-05-16T21:37:36.211Z,98124.25
2023-05-16T21:40:02.913Z,98123.31
2023-05-16T21:42:29.598Z,98121.91
2023-05-16T21:44:56.132Z,98124.09
2023-05-16T21:47:23.569Z,98128.94
2023-05-16T21:49:50.144Z,98138.50
2023-05-16T21:52:16.790Z,98132.53
2023-05-16T21:54:43.355Z,98133.63
2023-05-16T21:57:09.992Z,98126.34
2023-05-16T21:59:36.818Z,98135.75
2023-05-16T22:02:03.467Z,98137.38
2023-05-16T22:04:30.051Z,98138.78
2023-05-16T22:06:57.108Z,98127.44
2023-05-16T22:09:23.827Z,98126.22
2023-05-16T22:11:50.490Z,98090.66
2023-05-16T22:14:17.162Z,98133.41
2023-05-16T22:16:43.820Z,98137.03
2023-05-16T22:19:10.570Z,98130.09
2023-05-16T22:21:37.090Z,98140.09
2023-05-16T22:24:03.694Z,98139.53
2023-05-16T22:26:37.857Z,98145.34
2023-05-16T22:29:05.569Z,98142.97
2023-05-16T22:31:32.121Z,98143.41
2023-05-16T22:33:58.637Z,98143.28
2023-05-16T22:36:25.529Z,98126.66
2023-05-16T22:38:52.023Z,98150.06
2023-05-16T22:41:18.615Z,98161.69
2023-05-16T22:43:45.126Z,98178.28
2023-05-16T22:46:11.620Z,98177.56
2023-05-16T22:48:38.294Z,98189.63
2023-05-16T22:51:05.042Z,98200.41
2023-05-16T22:53:32.316Z,98204.28
2023-05-16T22:55:58.922Z,98206.34
2023-05-16T22:58:25.433Z,98214.47
2023-05-16T23:00:51.907Z,98229.69
2023-05-16T23:03:18.446Z,98248.09
2023-05-16T23:05:45.102Z,98256.91
2023-05-16T23:08:13.425Z,98270.19
2023-05-16T23:10:39.912Z,98281.56
2023-05-16T23:13:06.564Z,98374.28
2023-05-16T23:15:33.160Z,98401.66
2023-05-16T23:17:59.745Z,98422.69
2023-05-16T23:20:26.391Z,98445.13
2023-05-16T23:22:52.963Z,98446.09
2023-05-16T23:25:19.584Z,98458.81
2023-05-16T23:27:46.086Z,98487.28
2023-05-16T23:30:12.824Z,98494.44
2023-05-16T23:32:40.629Z,98507.97
2023-05-16T23:35:08.021Z,98542.72
2023-05-16T23:37:34.554Z,98540.56
2023-05-16T23:40:01.073Z,98562.78
2023-05-16T23:42:27.532Z,98580.09
2023-05-16T23:44:54.403Z,98598.38
2023-05-16T23:47:20.848Z,98612.22
2023-05-16T23:49:47.327Z,98621.31
2023-05-16T23:52:14.477Z,98635.59
2023-05-16T23:54:41.287Z,98649.69
2023-05-16T23:57:07.787Z,98654.09
2023-05-16T23:59:34.306Z,98630.34
